Terminal Aerodrome Forecast
Issued by NWS

Current Version | Previous Version | Text Only | Print | Product List | Glossary On
Versions: 1 2 3 4 5 6 7 8 9 10 11 12 13 14 15 16 17
000
FTUS41 KPHI 251740
TAFPNE
TAF
KPNE 251740Z 2518/2618 28007KT P6SM SCT150
     FM260000 25003KT P6SM SCT150
     FM260500 34004KT P6SM BKN120
     FM260900 01007KT P6SM OVC120
     FM261300 03008KT P6SM SCT200=

USA.gov is the U.S. government's official web portal to all federal, state and local government web resources and services.